Hlavní strana
METAR-TAF:

METAR-TAF

Letiště :

Redstone Arsenal, Alabama, Spojené státy americké

zeměpisná šířka: 34-40-43N, zeměpisná délka: 086-41-05W, výška: 209 m

Aktuální stav počasí

Zpráva byla vytvořena před 28 minutami, v 17:58 UTC
Severovýchodní vítr 12 kt
Teplota 10°C
Vlhkost vzduchu 40%
Tlak 1023 hPa
Viditelnost: 14.5 km
Polojasno ve výšce 13000 ft
Zataženo ve výšce 16000 ft

METAR: KHUA 151758Z AUTO 04012KT 9SM SCT130 OVC160 10/M03 A3022 RMK AO2 SLP236 6//// T01031034

Čas: 12:26 (18:26 UTC)


TAF: chybějící

Stav a předpovědi počasí z více než 4 000 letišť (zprávy METAR a TAF).

Červené a žluté tečky na mapě představují dostupné meteorologické stanice.

Když kurzor umístíte na tečku, zobrazí se název stanice.

Pak kliknutím zobrazíte stav a předpověď počasí.

Chcete-li změnit mapu, kliknutím na zelené tlačítko se znaménkem +mapu přiblížíte, kliknutím na zelené tlačítko se znaménkem – mapu oddálíte a kliknutím na zelené šipky přejdete na sousední mapy.


METAR-TAF: